Time;durP1;ratioP1;P1;durP2;ratioP2;P2;SDS_P1;SDS_P2;PMS_P1;PMS_P2;Temp;Humidity;BMP_temperature;BMP_pressure;BME280_temperature;BME280_humidity;BME280_pressure;Samples;Min_cycle;Max_cycle;Signal;HPM_P1;HPM_P2
2022/08/20 00:02:12;;;;;;;1.25;1.15;;;;;;;22.81;67.33;98553.28;4978453;28;103619;-61
2022/08/20 00:04:42;;;;;;;1.50;1.30;;;;;;;22.71;67.67;98547.41;4977233;28;103650;-60
2022/08/20 00:07:10;;;;;;;1.20;1.10;;;;;;;22.72;68.04;98559.81;4992115;28;102733;-61
2022/08/20 00:09:40;;;;;;;1.30;1.20;;;;;;;22.70;67.72;98561.88;4981551;28;103161;-62
2022/08/20 00:12:09;;;;;;;1.38;1.27;;;;;;;22.49;68.43;98555.41;4981494;28;103236;-61
2022/08/20 00:14:38;;;;;;;0.80;0.80;;;;;;;22.66;68.02;98555.19;4985893;28;105055;-61
2022/08/20 00:17:09;;;;;;;1.45;1.02;;;;;;;22.69;67.93;98555.66;4967539;28;102911;-61
2022/08/20 00:19:37;;;;;;;0.98;0.98;;;;;;;22.67;68.19;98551.47;4982196;28;104219;-61
2022/08/20 00:22:06;;;;;;;1.02;0.93;;;;;;;22.59;68.31;98552.41;4984640;28;102614;-61
2022/08/20 00:24:34;;;;;;;1.20;1.10;;;;;;;22.60;68.08;98556.75;4981038;28;103244;-60
2022/08/20 00:27:02;;;;;;;1.45;1.35;;;;;;;22.49;68.73;98555.41;4961100;28;102707;-61
2022/08/20 00:29:31;;;;;;;1.65;1.35;;;;;;;22.27;69.70;98550.16;4985240;28;103654;-61
2022/08/20 00:31:59;;;;;;;1.20;1.10;;;;;;;22.37;69.19;98556.09;4968314;28;104274;-61
2022/08/20 00:34:28;;;;;;;1.80;1.20;;;;;;;22.16;69.90;98562.22;4977836;28;103192;-61
2022/08/20 00:36:55;;;;;;;1.40;1.20;;;;;;;22.13;70.35;98559.91;4980592;28;102665;-61
2022/08/20 00:39:25;;;;;;;1.50;1.30;;;;;;;22.22;69.87;98558.78;4985693;28;104718;-60
2022/08/20 00:41:54;;;;;;;1.80;1.20;;;;;;;22.21;69.97;98562.50;4980589;28;103310;-61
2022/08/20 00:44:24;;;;;;;1.70;1.17;;;;;;;22.12;69.99;98555.53;4981162;28;103194;-61
2022/08/20 00:46:53;;;;;;;1.95;1.10;;;;;;;22.15;70.16;98563.25;4962727;28;103232;-61
2022/08/20 00:49:24;;;;;;;1.20;1.08;;;;;;;22.09;70.32;98558.59;4981990;28;102760;-62
2022/08/20 00:51:57;;;;;;;1.27;1.00;;;;;;;22.11;70.36;98561.97;4982472;28;103752;-61
2022/08/20 00:54:33;;;;;;;1.27;1.10;;;;;;;21.92;71.48;98563.34;4979023;28;103169;-63
2022/08/20 00:57:05;;;;;;;1.73;1.10;;;;;;;21.99;70.98;98565.28;4962483;28;102903;-61
2022/08/20 00:59:38;;;;;;;2.20;1.10;;;;;;;21.98;71.44;98567.16;4979442;28;102647;-61
2022/08/20 01:02:09;;;;;;;0.80;0.80;;;;;;;22.11;71.08;98571.88;4969615;28;103261;-61
2022/08/20 01:04:42;;;;;;;1.50;0.98;;;;;;;22.13;70.90;98569.84;4976873;28;103472;-61
2022/08/20 01:07:12;;;;;;;1.13;1.00;;;;;;;21.94;72.00;98571.25;4983462;28;102662;-61
2022/08/20 01:09:42;;;;;;;1.08;0.90;;;;;;;22.04;71.45;98577.16;4960970;28;102734;-60
2022/08/20 01:12:27;;;;;;;0.80;0.80;;;;;;;22.11;71.21;98588.88;4985749;28;103246;-61
2022/08/20 01:14:58;;;;;;;2.00;1.00;;;;;;;21.95;71.91;98589.88;4982198;28;103168;-61
2022/08/20 01:17:31;;;;;;;2.08;1.02;;;;;;;21.96;71.89;98588.03;4984620;28;103136;-61
2022/08/20 01:20:05;;;;;;;2.80;1.40;;;;;;;21.98;71.94;98591.34;4981781;28;103953;-61
2022/08/20 01:25:44;;;;;;;1.33;0.90;;;;;;;21.99;72.04;98587.66;4983323;28;103280;-61
2022/08/20 01:28:15;;;;;;;0.75;0.75;;;;;;;22.14;71.35;98593.03;4978175;28;103001;-61
2022/08/20 01:30:43;;;;;;;1.10;1.00;;;;;;;22.18;70.92;98592.47;4978251;28;102777;-61
2022/08/20 01:33:11;;;;;;;0.82;0.80;;;;;;;22.20;70.95;98595.81;4967693;28;103265;-61
2022/08/20 01:35:43;;;;;;;0.80;0.77;;;;;;;22.24;70.91;98597.09;4965696;28;103247;-61
2022/08/20 01:38:12;;;;;;;0.80;0.73;;;;;;;22.30;70.40;98593.66;4976435;28;102619;-60
2022/08/20 01:41:00;;;;;;;1.00;1.00;;;;;;;22.30;70.75;98596.38;4977413;28;102823;-60
2022/08/20 01:43:28;;;;;;;1.20;0.98;;;;;;;22.29;71.23;98607.28;4979218;28;103613;-61
2022/08/20 01:46:00;;;;;;;1.20;0.90;;;;;;;22.30;70.87;98604.44;4956927;28;103576;-61
2022/08/20 01:48:30;;;;;;;1.15;1.00;;;;;;;22.39;70.81;98608.69;4982231;28;102976;-61
2022/08/20 01:51:05;;;;;;;1.67;1.00;;;;;;;22.38;70.78;98607.00;4960302;28;103106;-60
2022/08/20 01:53:36;;;;;;;1.20;1.00;;;;;;;22.37;70.55;98605.34;4976429;28;103240;-60
2022/08/20 01:56:09;;;;;;;1.08;0.98;;;;;;;22.35;70.67;98607.38;4983126;28;102719;-70
2022/08/20 01:58:42;;;;;;;0.80;0.80;;;;;;;22.42;70.51;98616.41;4981597;28;102744;-71
2022/08/20 02:01:20;;;;;;;1.20;0.80;;;;;;;22.23;71.07;98613.44;4963732;28;103245;-71
2022/08/20 02:03:49;;;;;;;1.10;1.00;;;;;;;22.26;70.87;98608.50;4956391;28;103313;-71
2022/08/20 02:06:18;;;;;;;1.13;0.77;;;;;;;22.28;71.00;98619.09;4981341;28;103230;-71
2022/08/20 02:08:46;;;;;;;1.00;0.90;;;;;;;22.30;71.60;98620.56;4961942;28;102794;-70
2022/08/20 02:11:15;;;;;;;1.20;0.90;;;;;;;22.38;71.00;98625.84;4981244;28;104281;-70
2022/08/20 02:13:51;;;;;;;1.20;1.10;;;;;;;22.38;70.63;98620.47;4967088;28;103357;-71
2022/08/20 02:16:21;;;;;;;0.90;0.90;;;;;;;22.34;70.76;98621.84;4957568;28;103431;-71
2022/08/20 02:18:53;;;;;;;1.10;0.80;;;;;;;22.33;70.77;98613.97;4981341;28;102857;-71
2022/08/20 02:21:21;;;;;;;1.05;0.85;;;;;;;22.35;70.85;98618.16;4984195;28;104247;-70
2022/08/20 02:23:51;;;;;;;0.80;0.73;;;;;;;22.28;70.44;98617.25;4980403;28;103292;-71
2022/08/20 02:26:21;;;;;;;1.10;1.00;;;;;;;22.10;71.94;98614.09;4976680;28;103199;-71
2022/08/20 02:28:51;;;;;;;1.17;1.00;;;;;;;21.87;72.86;98629.47;4981756;28;103050;-70
2022/08/20 02:31:21;;;;;;;1.10;1.00;;;;;;;21.65;73.72;98633.00;4977989;28;102678;-71
2022/08/20 02:33:49;;;;;;;1.13;1.02;;;;;;;21.58;74.32;98629.41;4976840;28;103247;-71
2022/08/20 02:36:38;;;;;;;1.02;0.93;;;;;;;21.67;74.01;98629.13;4979322;28;103194;-71
2022/08/20 02:39:08;;;;;;;1.02;0.93;;;;;;;21.83;73.30;98625.44;4977015;28;102643;-71
2022/08/20 02:41:40;;;;;;;1.40;1.00;;;;;;;21.88;72.93;98631.13;4979439;28;102896;-70
2022/08/20 02:44:09;;;;;;;1.00;1.00;;;;;;;21.92;73.08;98627.09;4978684;28;103341;-71
2022/08/20 02:46:37;;;;;;;1.20;1.10;;;;;;;21.89;73.12;98619.38;4977306;28;102982;-70
2022/08/20 02:49:07;;;;;;;1.30;0.90;;;;;;;21.90;73.14;98626.41;4978746;28;102911;-70
2022/08/20 02:51:36;;;;;;;1.20;1.10;;;;;;;21.77;73.43;98624.34;4961806;28;104062;-71
2022/08/20 02:54:04;;;;;;;1.20;1.07;;;;;;;21.70;74.20;98627.91;4978849;28;104023;-71
2022/08/20 02:56:32;;;;;;;2.38;1.00;;;;;;;21.78;73.57;98625.19;4979596;28;103482;-71
2022/08/20 02:59:01;;;;;;;1.20;1.10;;;;;;;21.73;73.75;98623.03;4974572;28;103330;-71
2022/08/20 03:01:31;;;;;;;1.10;1.00;;;;;;;21.83;73.23;98617.38;4977618;28;103038;-70
2022/08/20 03:03:59;;;;;;;1.60;1.10;;;;;;;21.85;73.43;98609.97;4976176;28;103222;-71
2022/08/20 03:06:27;;;;;;;2.80;1.45;;;;;;;21.75;73.94;98606.72;4975667;28;103239;-71
2022/08/20 03:08:56;;;;;;;1.85;1.20;;;;;;;21.59;74.56;98604.16;4977098;28;102739;-71
2022/08/20 03:11:24;;;;;;;1.40;1.30;;;;;;;21.67;73.84;98606.81;4983660;28;102731;-71
2022/08/20 03:13:54;;;;;;;1.27;1.00;;;;;;;21.74;73.45;98613.09;4980000;28;103028;-71
2022/08/20 03:16:27;;;;;;;0.98;0.98;;;;;;;21.80;73.15;98607.00;4981683;28;103185;-70
2022/08/20 03:18:56;;;;;;;1.70;1.20;;;;;;;21.88;73.07;98609.63;4958673;28;102715;-70
2022/08/20 03:21:24;;;;;;;1.15;1.05;;;;;;;21.92;72.88;98602.88;4978874;28;102789;-71
2022/08/20 03:23:52;;;;;;;1.43;1.23;;;;;;;21.84;73.16;98613.66;4955766;28;103305;-71
2022/08/20 03:26:20;;;;;;;1.17;1.08;;;;;;;21.91;73.41;98604.72;4986551;28;103252;-70
2022/08/20 03:28:47;;;;;;;1.40;1.20;;;;;;;21.96;73.15;98604.16;4979742;28;102555;-71
2022/08/20 03:31:16;;;;;;;1.35;1.25;;;;;;;22.03;72.92;98597.03;4984514;28;103510;-71
2022/08/20 03:33:47;;;;;;;1.08;0.98;;;;;;;22.09;72.76;98606.22;4980910;28;104254;-71
2022/08/20 03:36:21;;;;;;;1.00;1.00;;;;;;;22.11;73.27;98604.16;4983061;28;103208;-71
2022/08/20 03:38:56;;;;;;;1.10;1.00;;;;;;;22.13;72.78;98600.28;4979956;28;102718;-71
2022/08/20 03:41:24;;;;;;;1.15;1.00;;;;;;;22.17;72.41;98598.88;4965904;28;103207;-70
2022/08/20 03:43:52;;;;;;;1.30;1.20;;;;;;;22.10;72.82;98600.63;4977973;28;103247;-71
2022/08/20 03:46:20;;;;;;;1.27;1.17;;;;;;;22.14;72.91;98610.00;4958706;28;103212;-71
2022/08/20 03:48:51;;;;;;;1.10;1.00;;;;;;;22.19;72.84;98607.59;4988156;28;102764;-71
2022/08/20 03:51:28;;;;;;;1.50;1.40;;;;;;;21.93;74.03;98607.22;4960859;28;102733;-71
2022/08/20 03:53:56;;;;;;;1.33;1.23;;;;;;;22.06;73.87;98604.72;4976306;28;103719;-71
2022/08/20 03:56:24;;;;;;;1.25;1.15;;;;;;;22.15;73.40;98611.66;4984348;28;103712;-70
2022/08/20 03:58:52;;;;;;;1.07;1.00;;;;;;;22.21;72.99;98615.47;4983028;28;102831;-70
2022/08/20 04:01:20;;;;;;;1.35;1.20;;;;;;;22.14;73.54;98615.41;4979104;28;102615;-71
2022/08/20 04:04:10;;;;;;;1.30;1.20;;;;;;;22.12;73.95;98617.41;4977826;28;103216;-71
2022/08/20 04:06:39;;;;;;;1.10;1.00;;;;;;;22.19;73.34;98612.13;4977722;28;103298;-71
2022/08/20 04:09:09;;;;;;;1.20;1.10;;;;;;;22.23;73.17;98618.81;4978788;28;102712;-70
2022/08/20 04:11:39;;;;;;;1.20;1.10;;;;;;;22.21;73.25;98621.69;4977625;28;102939;-70
2022/08/20 04:14:07;;;;;;;1.30;1.20;;;;;;;22.22;73.49;98615.28;4979985;28;103277;-71
2022/08/20 04:16:38;;;;;;;1.17;1.07;;;;;;;22.19;73.68;98612.13;4986453;28;103337;-71
2022/08/20 04:19:06;;;;;;;1.15;1.05;;;;;;;22.23;73.34;98618.81;4966435;28;102763;-70
2022/08/20 04:21:36;;;;;;;0.95;0.95;;;;;;;22.16;73.00;98617.88;4975161;28;102698;-71
2022/08/20 04:24:05;;;;;;;2.07;1.40;;;;;;;22.22;72.79;98612.59;4978493;28;104515;-71
2022/08/20 04:26:36;;;;;;;1.27;1.17;;;;;;;22.23;72.83;98616.94;4981853;28;103208;-71
2022/08/20 04:29:04;;;;;;;1.83;1.50;;;;;;;22.21;73.21;98621.69;4981443;28;103029;-71
2022/08/20 04:31:33;;;;;;;1.60;1.50;;;;;;;22.19;72.98;98628.28;4981245;28;102732;-71
2022/08/20 04:34:02;;;;;;;1.40;1.30;;;;;;;22.24;73.05;98632.09;4956899;28;103524;-70
2022/08/20 04:36:31;;;;;;;1.92;1.83;;;;;;;21.90;74.36;98634.47;4983378;28;103193;-71
2022/08/20 04:39:00;;;;;;;1.73;1.63;;;;;;;22.05;74.29;98635.34;4984258;28;102867;-71
2022/08/20 04:41:28;;;;;;;1.50;1.40;;;;;;;22.13;73.73;98629.00;4983299;28;102693;-71
2022/08/20 04:43:57;;;;;;;1.65;1.55;;;;;;;22.22;73.12;98627.91;4987191;28;103277;-71
2022/08/20 04:46:27;;;;;;;1.60;1.50;;;;;;;22.28;72.74;98633.41;4980658;28;103215;-70
2022/08/20 04:49:02;;;;;;;1.60;1.50;;;;;;;22.27;72.67;98631.72;4973426;28;102613;-71
2022/08/20 04:51:30;;;;;;;1.60;1.50;;;;;;;22.31;72.87;98643.78;4980725;28;103909;-71
2022/08/20 04:54:01;;;;;;;2.13;1.92;;;;;;;22.24;73.46;98637.47;4983109;28;103345;-71
2022/08/20 04:56:33;;;;;;;1.70;1.60;;;;;;;22.29;72.90;98637.72;4987102;28;103241;-71
2022/08/20 04:59:02;;;;;;;1.80;1.70;;;;;;;22.34;73.02;98638.00;4982453;28;103586;-71
2022/08/20 05:01:32;;;;;;;1.50;1.40;;;;;;;22.34;73.13;98637.19;4981626;28;104120;-71
2022/08/20 05:04:00;;;;;;;1.98;1.88;;;;;;;22.35;73.44;98645.06;4987866;28;103514;-70
2022/08/20 05:06:31;;;;;;;1.60;1.50;;;;;;;22.42;73.45;98650.56;4983721;28;103197;-71
2022/08/20 05:09:00;;;;;;;3.53;2.08;;;;;;;22.32;76.00;98647.28;4956092;28;102803;-71
2022/08/20 05:11:29;;;;;;;2.43;2.10;;;;;;;22.23;77.66;98651.94;4983893;28;103179;-70
2022/08/20 05:14:04;;;;;;;1.83;1.73;;;;;;;22.39;77.50;98653.59;4982114;28;103461;-71
2022/08/20 05:16:36;;;;;;;3.60;2.30;;;;;;;22.34;78.16;98656.84;4980345;28;104132;-71
2022/08/20 05:19:05;;;;;;;2.10;2.00;;;;;;;22.31;79.18;98659.94;4958338;28;102766;-71
2022/08/20 05:21:33;;;;;;;1.83;1.70;;;;;;;22.35;78.64;98653.13;4988454;28;104062;-70
2022/08/20 05:24:03;;;;;;;2.40;2.20;;;;;;;22.27;79.88;98657.78;4979919;28;104109;-71
2022/08/20 05:26:32;;;;;;;2.55;2.35;;;;;;;22.18;80.29;98665.09;4973695;28;103354;-71
2022/08/20 05:29:01;;;;;;;2.70;2.50;;;;;;;22.11;80.56;98669.56;4977478;28;103118;-71
2022/08/20 05:31:30;;;;;;;2.90;2.70;;;;;;;21.99;81.12;98668.34;4979766;28;102631;-70
2022/08/20 05:34:05;;;;;;;2.10;2.00;;;;;;;22.03;81.07;98677.72;4978993;28;103300;-71
2022/08/20 05:36:33;;;;;;;3.17;2.40;;;;;;;22.07;80.67;98676.31;4983535;28;103275;-71
2022/08/20 05:39:03;;;;;;;3.28;2.85;;;;;;;21.97;80.94;98675.78;4978639;28;103042;-70
2022/08/20 05:41:30;;;;;;;2.60;2.40;;;;;;;21.95;81.73;98669.75;4966213;28;103927;-71
2022/08/20 05:44:00;;;;;;;3.15;2.85;;;;;;;21.90;81.96;98675.66;4977929;28;102995;-72
2022/08/20 05:46:29;;;;;;;1.90;1.80;;;;;;;22.06;80.83;98680.06;4982107;28;103323;-71
2022/08/20 05:49:01;;;;;;;3.00;2.70;;;;;;;22.08;80.82;98687.94;4976346;28;103018;-71
2022/08/20 05:51:29;;;;;;;3.07;2.77;;;;;;;22.17;80.39;98690.34;4959449;28;102843;-71
2022/08/20 05:53:57;;;;;;;2.65;2.00;;;;;;;22.23;79.88;98689.59;4973350;28;103270;-71
2022/08/20 05:56:29;;;;;;;1.80;1.70;;;;;;;22.37;79.69;98680.69;4979359;28;103725;-71
2022/08/20 05:59:00;;;;;;;1.95;1.85;;;;;;;22.49;78.40;98689.13;4980422;28;102811;-71
2022/08/20 06:01:28;;;;;;;2.33;2.13;;;;;;;22.61;78.58;98684.13;4976761;28;102619;-71
2022/08/20 06:06:42;;;;;;;2.20;2.03;;;;;;;22.82;78.02;98689.63;4979106;28;103188;-71
2022/08/20 06:09:13;;;;;;;3.50;2.40;;;;;;;22.77;76.85;98678.56;4958766;28;102745;-71
2022/08/20 06:11:43;;;;;;;2.92;2.63;;;;;;;22.77;79.94;98683.94;4966823;28;102776;-70
2022/08/20 06:14:11;;;;;;;3.30;3.00;;;;;;;22.64;77.57;98681.09;4980658;28;103268;-71
2022/08/20 06:16:41;;;;;;;2.75;2.55;;;;;;;22.87;77.44;98682.66;4984066;28;103169;-71
2022/08/20 06:19:24;;;;;;;3.22;2.83;;;;;;;22.86;76.10;98674.75;4979041;28;103762;-70
2022/08/20 06:21:53;;;;;;;3.00;2.70;;;;;;;22.87;76.23;98681.81;4973219;28;102880;-71
2022/08/20 06:24:21;;;;;;;2.73;2.53;;;;;;;22.91;76.09;98683.91;4975588;28;103926;-71
2022/08/20 06:26:56;;;;;;;2.63;2.40;;;;;;;23.14;75.37;98682.94;4978326;28;103225;-71
2022/08/20 06:29:24;;;;;;;2.60;2.40;;;;;;;23.16;74.45;98695.19;4974758;28;102782;-70
2022/08/20 06:31:55;;;;;;;2.22;2.10;;;;;;;23.20;74.33;98691.09;4976929;28;103789;-71
2022/08/20 06:34:26;;;;;;;2.90;2.60;;;;;;;23.23;75.39;98695.25;4982896;28;103819;-71
2022/08/20 06:36:58;;;;;;;2.58;2.38;;;;;;;23.10;74.27;98693.28;4979215;28;103075;-71
2022/08/20 06:39:27;;;;;;;3.40;2.80;;;;;;;23.16;75.04;98695.19;4975530;28;103094;-70
2022/08/20 06:41:58;;;;;;;2.63;2.38;;;;;;;23.36;73.64;98701.63;4985370;28;102599;-70
2022/08/20 06:44:28;;;;;;;2.60;2.40;;;;;;;23.47;73.78;98701.16;4979727;28;103307;-71
2022/08/20 06:47:02;;;;;;;3.30;2.83;;;;;;;23.31;72.87;98698.66;4961128;28;103182;-71
2022/08/20 06:49:31;;;;;;;3.03;2.60;;;;;;;23.26;73.31;98698.41;4976511;28;102847;-71
2022/08/20 06:52:02;;;;;;;4.00;2.58;;;;;;;23.17;73.61;98699.56;4984768;28;102803;-70
2022/08/20 06:54:33;;;;;;;3.20;2.90;;;;;;;22.95;74.31;98701.38;4960025;28;103290;-70
2022/08/20 06:57:02;;;;;;;2.83;2.63;;;;;;;22.91;74.44;98700.09;4977030;28;103165;-70
2022/08/20 06:59:30;;;;;;;3.60;2.90;;;;;;;22.85;74.53;98700.03;4978154;28;104369;-70
2022/08/20 07:01:58;;;;;;;2.65;2.45;;;;;;;23.02;74.26;98696.91;4958755;28;103046;-70
2022/08/20 07:04:27;;;;;;;3.45;2.55;;;;;;;23.01;73.50;98699.78;4961796;28;103273;-70
2022/08/20 07:06:56;;;;;;;2.97;2.70;;;;;;;22.65;74.78;98699.78;4956363;28;104434;-70
2022/08/20 07:09:25;;;;;;;2.47;2.28;;;;;;;22.82;74.88;98701.22;4974352;28;102675;-71
2022/08/20 07:11:53;;;;;;;2.50;2.30;;;;;;;23.03;75.22;98701.28;4981045;28;102711;-71
2022/08/20 07:14:25;;;;;;;2.92;2.33;;;;;;;23.23;75.38;98698.78;4976675;28;103425;-70
2022/08/20 07:16:53;;;;;;;2.30;2.10;;;;;;;23.22;75.00;98707.06;4974436;28;103193;-71
2022/08/20 07:19:22;;;;;;;2.30;2.10;;;;;;;23.46;74.46;98710.28;4956504;28;102760;-71
2022/08/20 07:21:50;;;;;;;2.60;2.40;;;;;;;23.47;75.33;98706.53;4977127;28;104135;-71
2022/08/20 07:24:18;;;;;;;4.50;3.13;;;;;;;23.29;75.23;98707.97;4972860;28;103083;-71
2022/08/20 07:26:45;;;;;;;3.10;2.63;;;;;;;23.55;74.34;98709.09;4975107;28;103434;-70
2022/08/20 07:29:13;;;;;;;1.75;1.65;;;;;;;23.83;74.97;98714.53;4972742;28;102714;-70
2022/08/20 07:34:30;;;;;;;2.73;2.50;;;;;;;24.06;71.14;98715.16;4976936;28;103402;-71
2022/08/20 07:36:59;;;;;;;2.97;2.72;;;;;;;23.86;70.60;98722.25;4975957;28;103165;-71
2022/08/20 07:39:27;;;;;;;3.47;3.00;;;;;;;24.11;70.81;98720.00;4957995;28;102909;-71
2022/08/20 07:42:02;;;;;;;3.73;2.90;;;;;;;23.87;70.77;98721.22;4983770;28;102958;-71
2022/08/20 07:44:30;;;;;;;2.53;2.33;;;;;;;24.35;69.80;98727.66;4981746;28;103269;-71
2022/08/20 07:47:00;;;;;;;2.90;2.70;;;;;;;24.46;69.11;98723.56;4970977;28;103275;-70
2022/08/20 07:49:29;;;;;;;3.70;3.07;;;;;;;24.04;69.51;98730.72;4977330;28;102861;-70
2022/08/20 07:51:58;;;;;;;3.05;2.83;;;;;;;24.31;69.63;98730.94;4959486;28;102679;-70
2022/08/20 07:54:26;;;;;;;3.33;3.07;;;;;;;23.74;69.87;98740.00;4974908;28;103927;-71
2022/08/20 07:57:01;;;;;;;2.85;2.65;;;;;;;24.35;69.14;98738.44;4985344;28;102980;-70
2022/08/20 07:59:29;;;;;;;3.08;2.85;;;;;;;24.28;68.96;98731.34;4979502;28;103178;-71
2022/08/20 08:01:57;;;;;;;5.20;3.03;;;;;;;24.81;68.02;98732.53;4976808;28;102598;-71
2022/08/20 08:04:26;;;;;;;3.25;2.78;;;;;;;25.15;66.76;98727.06;4958433;28;104463;-71
2022/08/20 08:06:58;;;;;;;2.88;2.50;;;;;;;25.85;65.50;98726.63;4977075;28;103457;-71
2022/08/20 08:09:28;;;;;;;3.00;2.70;;;;;;;26.35;63.89;98734.13;4982336;28;102559;-71
2022/08/20 08:11:59;;;;;;;3.75;2.72;;;;;;;24.73;67.28;98736.16;4978321;28;102845;-70
2022/08/20 08:14:31;;;;;;;3.00;2.70;;;;;;;25.37;66.73;98725.88;4977466;28;104558;-71
2022/08/20 08:17:03;;;;;;;2.80;2.53;;;;;;;25.76;63.93;98723.28;4961857;28;103479;-71
2022/08/20 08:19:37;;;;;;;3.28;2.95;;;;;;;24.56;65.46;98729.44;4960082;28;103474;-71
2022/08/20 08:22:11;;;;;;;6.18;3.08;;;;;;;25.19;65.35;98721.03;4978222;28;102654;-72
2022/08/20 08:24:40;;;;;;;4.00;3.13;;;;;;;25.42;65.11;98719.84;4978115;28;103280;-71
2022/08/20 08:27:23;;;;;;;3.42;3.13;;;;;;;25.52;64.68;98723.84;4982157;28;103356;-71
2022/08/20 08:29:53;;;;;;;3.80;3.40;;;;;;;25.10;65.83;98721.41;4975525;28;102617;-71
2022/08/20 08:32:21;;;;;;;3.93;3.63;;;;;;;24.48;67.53;98724.19;4985762;28;102838;-71
2022/08/20 08:34:50;;;;;;;4.57;4.18;;;;;;;24.19;67.56;98723.41;4976861;28;103356;-71
2022/08/20 08:37:18;;;;;;;4.88;4.47;;;;;;;24.28;67.28;98710.56;4983532;28;103256;-71
2022/08/20 08:39:49;;;;;;;4.55;4.20;;;;;;;24.60;67.46;98715.34;4981631;28;103126;-71
2022/08/20 08:42:26;;;;;;;4.50;4.10;;;;;;;25.08;66.52;98715.38;4995833;28;102756;-71
2022/08/20 08:44:54;;;;;;;5.40;4.33;;;;;;;25.07;65.42;98708.28;4977336;28;103307;-72
2022/08/20 08:47:26;;;;;;;6.03;4.30;;;;;;;24.26;67.87;98706.38;4982804;28;103232;-71
2022/08/20 08:49:58;;;;;;;5.30;4.17;;;;;;;24.43;67.57;98719.38;4987940;28;102806;-71
2022/08/20 08:52:30;;;;;;;4.25;3.95;;;;;;;25.31;65.81;98719.41;4979722;28;103043;-71
2022/08/20 08:55:01;;;;;;;3.42;3.15;;;;;;;25.14;64.76;98722.69;4980478;28;103272;-71
2022/08/20 08:57:30;;;;;;;3.55;3.25;;;;;;;25.63;63.37;98717.03;4958630;28;103799;-71
2022/08/20 09:00:05;;;;;;;4.07;3.57;;;;;;;26.02;63.86;98727.84;4980532;28;102838;-71
2022/08/20 09:02:37;;;;;;;4.38;3.97;;;;;;;25.54;64.10;98729.06;4978198;28;102915;-71
2022/08/20 09:05:15;;;;;;;3.93;3.63;;;;;;;24.93;66.18;98734.44;4979161;28;103278;-71
2022/08/20 09:07:46;;;;;;;3.40;3.17;;;;;;;26.08;62.98;98720.78;4980510;28;103241;-70
2022/08/20 09:10:15;;;;;;;4.00;3.70;;;;;;;24.92;64.77;98723.84;4965858;28;103260;-71
2022/08/20 09:12:49;;;;;;;4.25;3.60;;;;;;;24.94;65.13;98714.50;4965245;28;104393;-71
2022/08/20 09:15:20;;;;;;;3.70;3.13;;;;;;;26.19;62.59;98701.25;4982504;28;103259;-71
2022/08/20 09:17:48;;;;;;;3.13;2.88;;;;;;;26.93;60.90;98705.22;4985115;28;103292;-71
2022/08/20 09:20:18;;;;;;;3.13;2.92;;;;;;;27.29;59.71;98704.63;4979205;28;102621;-71
2022/08/20 09:22:46;;;;;;;2.77;2.47;;;;;;;25.84;61.00;98711.41;4979412;28;102873;-71
2022/08/20 09:25:14;;;;;;;2.85;2.65;;;;;;;26.07;61.12;98711.00;4977492;28;103345;-71
2022/08/20 09:27:42;;;;;;;3.00;2.20;;;;;;;25.64;61.43;98711.41;4982073;28;103268;-71
2022/08/20 09:30:13;;;;;;;2.20;1.93;;;;;;;26.21;60.79;98715.38;4982549;28;103534;-71
2022/08/20 09:32:44;;;;;;;2.08;1.60;;;;;;;25.99;61.13;98716.63;4956799;28;103960;-71
2022/08/20 09:35:12;;;;;;;2.40;1.58;;;;;;;25.67;60.97;98719.09;4976224;28;103335;-71
2022/08/20 09:37:41;;;;;;;2.63;1.77;;;;;;;25.10;63.23;98716.00;4979701;28;103191;-71
2022/08/20 09:40:11;;;;;;;2.07;1.63;;;;;;;25.66;61.91;98712.00;4982453;28;102824;-71
2022/08/20 09:42:40;;;;;;;2.25;1.52;;;;;;;26.42;59.93;98712.44;4982132;28;102785;-71
2022/08/20 09:45:12;;;;;;;1.85;1.73;;;;;;;26.37;59.66;98712.22;4958280;28;103396;-71
2022/08/20 09:47:40;;;;;;;3.47;2.10;;;;;;;25.78;61.71;98713.06;4957957;28;103334;-71
2022/08/20 09:50:23;;;;;;;2.38;2.00;;;;;;;26.68;58.98;98698.81;4976088;28;103268;-71
2022/08/20 09:52:55;;;;;;;2.65;2.45;;;;;;;26.40;59.98;98700.97;4976566;28;102828;-71
2022/08/20 09:55:31;;;;;;;2.47;2.28;;;;;;;25.91;61.53;98699.53;4981816;28;103186;-70
2022/08/20 09:58:01;;;;;;;3.47;2.10;;;;;;;25.03;64.15;98707.06;4978585;28;103224;-71
2022/08/20 10:00:28;;;;;;;3.63;2.45;;;;;;;25.12;64.02;98703.13;4977916;28;102863;-71
2022/08/20 10:02:56;;;;;;;2.65;2.45;;;;;;;24.97;64.35;98713.25;4974097;28;102712;-70
2022/08/20 10:05:24;;;;;;;2.75;2.30;;;;;;;24.63;65.76;98714.09;4976147;28;103553;-71
2022/08/20 10:07:54;;;;;;;2.33;2.08;;;;;;;26.18;61.34;98705.81;4962082;28;103991;-71
2022/08/20 10:10:25;;;;;;;3.20;2.30;;;;;;;26.26;60.25;98707.47;4981121;28;102801;-71
2022/08/20 10:12:52;;;;;;;2.58;1.85;;;;;;;27.88;56.66;98695.28;4960320;28;103059;-71
2022/08/20 10:15:21;;;;;;;2.08;1.90;;;;;;;27.37;57.33;98711.69;4981505;28;103335;-71
2022/08/20 10:17:49;;;;;;;3.28;1.98;;;;;;;27.14;58.12;98708.69;4976404;28;104140;-71
2022/08/20 10:20:18;;;;;;;2.35;2.13;;;;;;;25.76;61.40;98723.28;4983179;28;102637;-71
2022/08/20 10:22:46;;;;;;;3.22;2.40;;;;;;;25.42;62.82;98717.97;4974997;28;102847;-71
2022/08/20 10:25:16;;;;;;;2.40;1.95;;;;;;;25.16;63.89;98720.59;4957737;28;103309;-71
2022/08/20 10:27:45;;;;;;;2.30;2.10;;;;;;;25.44;62.71;98713.19;4983725;28;103213;-71
2022/08/20 10:30:13;;;;;;;1.80;1.50;;;;;;;25.37;61.94;98718.56;4975545;28;102939;-71
2022/08/20 10:32:41;;;;;;;1.88;1.60;;;;;;;25.70;62.00;98724.09;4981733;28;103798;-71
2022/08/20 10:35:09;;;;;;;1.10;1.00;;;;;;;25.91;60.17;98718.47;4977859;28;103304;-70
2022/08/20 10:37:37;;;;;;;2.70;1.10;;;;;;;25.98;60.21;98710.38;4979280;28;103209;-71
2022/08/20 10:40:06;;;;;;;1.00;0.90;;;;;;;26.91;57.79;98704.63;4973538;28;102633;-70
2022/08/20 10:42:36;;;;;;;0.95;0.73;;;;;;;26.79;57.96;98708.19;4985542;28;102712;-71
2022/08/20 10:45:10;;;;;;;1.50;1.00;;;;;;;27.44;54.37;98696.22;4960455;28;103566;-70
2022/08/20 10:47:39;;;;;;;1.48;1.38;;;;;;;27.45;56.43;98689.78;4979193;28;103163;-71
2022/08/20 10:50:12;;;;;;;1.60;1.50;;;;;;;28.13;53.63;98691.53;4956249;28;103115;-70
2022/08/20 10:52:40;;;;;;;1.60;1.50;;;;;;;28.20;54.02;98691.50;4982794;28;103565;-70
2022/08/20 10:55:09;;;;;;;1.35;1.10;;;;;;;28.19;54.15;98687.94;4978960;28;103360;-70
2022/08/20 10:57:42;;;;;;;1.20;0.83;;;;;;;27.84;55.10;98700.34;4978214;28;104791;-70
2022/08/20 11:00:15;;;;;;;0.93;0.70;;;;;;;28.29;53.38;98689.31;4960778;28;103288;-71
2022/08/20 11:02:43;;;;;;;0.93;0.50;;;;;;;28.46;52.00;98693.13;4979548;28;102848;-70
2022/08/20 11:05:11;;;;;;;1.35;0.73;;;;;;;28.46;51.50;98698.53;4981850;28;103321;-70
2022/08/20 11:07:41;;;;;;;1.08;0.50;;;;;;;28.71;50.24;98699.34;4977741;28;103583;-71
2022/08/20 11:10:27;;;;;;;1.55;0.68;;;;;;;27.34;52.70;98706.72;4977975;28;102979;-70
2022/08/20 11:12:57;;;;;;;1.10;0.70;;;;;;;26.42;54.91;98707.00;4976405;28;103887;-71
2022/08/20 11:15:27;;;;;;;1.30;0.85;;;;;;;26.83;55.15;98710.28;4983124;28;103274;-71
2022/08/20 11:17:56;;;;;;;1.80;0.83;;;;;;;27.19;54.98;98703.44;4956495;28;104122;-71
2022/08/20 11:20:25;;;;;;;1.70;1.10;;;;;;;26.89;56.19;98708.59;4983991;28;102633;-71
2022/08/20 11:22:53;;;;;;;2.20;0.93;;;;;;;26.73;56.36;98704.44;4985239;28;103888;-70
2022/08/20 11:25:24;;;;;;;1.10;0.77;;;;;;;27.61;54.02;98702.81;4979771;28;103280;-71
2022/08/20 11:27:54;;;;;;;1.17;0.73;;;;;;;27.18;53.22;98715.31;4982581;28;103169;-71
2022/08/20 11:30:27;;;;;;;1.00;0.90;;;;;;;27.29;54.39;98711.94;4975760;28;102749;-71
2022/08/20 11:32:56;;;;;;;1.70;1.02;;;;;;;27.46;54.75;98711.25;4957884;28;104166;-70
2022/08/20 11:35:24;;;;;;;1.10;0.90;;;;;;;27.54;53.64;98702.84;4979326;28;103362;-70
2022/08/20 11:38:12;;;;;;;1.15;0.77;;;;;;;26.99;54.60;98704.38;4978274;28;103231;-70
2022/08/20 11:40:43;;;;;;;1.40;0.73;;;;;;;26.94;54.30;98704.19;4962406;28;102719;-71
2022/08/20 11:43:11;;;;;;;1.50;0.70;;;;;;;27.12;53.83;98702.66;4978436;28;102918;-70
2022/08/20 11:45:45;;;;;;;0.80;0.60;;;;;;;26.42;55.98;98707.00;4984449;28;103274;-71
2022/08/20 11:48:13;;;;;;;0.80;0.80;;;;;;;26.92;55.12;98713.59;4984549;28;103213;-70